sensor_id;sensor_type;location;lat;lon;timestamp;pressure;altitude;pressure_sealevel;temperature;humidity
70009;BME280;59542;37.950;-122.338;2023-02-01T00:00:15;101876.38;;;14.62;23.14
70009;BME280;59542;37.950;-122.338;2023-02-01T00:02:41;101884.44;;;14.48;22.93
70009;BME280;59542;37.950;-122.338;2023-02-01T00:05:08;101886.88;;;14.43;22.95
70009;BME280;59542;37.950;-122.338;2023-02-01T00:07:36;101885.66;;;14.46;22.35
70009;BME280;59542;37.950;-122.338;2023-02-01T00:10:03;101884.41;;;14.35;22.93
70009;BME280;59542;37.950;-122.338;2023-02-01T00:12:30;101883.13;;;14.24;23.16
70009;BME280;59542;37.950;-122.338;2023-02-01T00:14:57;101880.88;;;14.21;23.47
70009;BME280;59542;37.950;-122.338;2023-02-01T00:17:23;101882.91;;;14.13;23.49
70009;BME280;59542;37.950;-122.338;2023-02-01T00:19:50;101887.25;;;14.07;24.05
70009;BME280;59542;37.950;-122.338;2023-02-01T00:22:16;101883.78;;;14.33;23.15
70009;BME280;59542;37.950;-122.338;2023-02-01T00:24:42;101884.63;;;14.34;23.23
70009;BME280;59542;37.950;-122.338;2023-02-01T00:27:09;101876.09;;;14.43;23.50
70009;BME280;59542;37.950;-122.338;2023-02-01T00:29:35;101876.75;;;14.45;23.17
70009;BME280;59542;37.950;-122.338;2023-02-01T00:32:01;101877.53;;;14.26;23.47
70009;BME280;59542;37.950;-122.338;2023-02-01T00:34:27;101880.09;;;14.47;23.18
70009;BME280;59542;37.950;-122.338;2023-02-01T00:36:54;101884.47;;;14.55;23.09
70009;BME280;59542;37.950;-122.338;2023-02-01T00:39:20;101881.69;;;14.22;23.62
70009;BME280;59542;37.950;-122.338;2023-02-01T00:41:46;101880.22;;;14.06;24.48
70009;BME280;59542;37.950;-122.338;2023-02-01T00:44:12;101881.03;;;14.13;24.07
70009;BME280;59542;37.950;-122.338;2023-02-01T00:46:39;101883.94;;;14.05;24.39
70009;BME280;59542;37.950;-122.338;2023-02-01T00:49:05;101882.25;;;14.04;24.15
70009;BME280;59542;37.950;-122.338;2023-02-01T00:51:32;101884.38;;;14.22;24.23
70009;BME280;59542;37.950;-122.338;2023-02-01T00:53:59;101888.88;;;13.88;24.90
70009;BME280;59542;37.950;-122.338;2023-02-01T00:56:25;101883.13;;;14.18;24.49
70009;BME280;59542;37.950;-122.338;2023-02-01T00:58:53;101876.03;;;14.04;24.86
70009;BME280;59542;37.950;-122.338;2023-02-01T01:01:25;101889.94;;;14.14;25.13
70009;BME280;59542;37.950;-122.338;2023-02-01T01:03:54;101881.03;;;14.07;24.98
70009;BME280;59542;37.950;-122.338;2023-02-01T01:06:24;101888.06;;;13.94;25.65
70009;BME280;59542;37.950;-122.338;2023-02-01T01:08:52;101884.53;;;13.94;25.58
70009;BME280;59542;37.950;-122.338;2023-02-01T01:11:30;101888.66;;;13.90;25.77
70009;BME280;59542;37.950;-122.338;2023-02-01T01:13:59;101895.47;;;13.92;26.07
70009;BME280;59542;37.950;-122.338;2023-02-01T01:16:27;101892.78;;;13.86;26.52
70009;BME280;59542;37.950;-122.338;2023-02-01T01:18:54;101891.75;;;13.93;26.78
70009;BME280;59542;37.950;-122.338;2023-02-01T01:21:21;101894.41;;;13.80;27.14
70009;BME280;59542;37.950;-122.338;2023-02-01T01:23:48;101903.50;;;13.72;27.65
70009;BME280;59542;37.950;-122.338;2023-02-01T01:26:17;101902.63;;;13.65;28.01
70009;BME280;59542;37.950;-122.338;2023-02-01T01:28:44;101906.94;;;13.60;28.06
70009;BME280;59542;37.950;-122.338;2023-02-01T01:31:12;101907.50;;;13.48;28.26
70009;BME280;59542;37.950;-122.338;2023-02-01T01:33:39;101912.63;;;13.37;28.46
70009;BME280;59542;37.950;-122.338;2023-02-01T01:36:07;101917.97;;;13.30;28.86
70009;BME280;59542;37.950;-122.338;2023-02-01T01:38:37;101912.06;;;13.20;29.00
70009;BME280;59542;37.950;-122.338;2023-02-01T01:41:04;101918.03;;;13.15;29.13
70009;BME280;59542;37.950;-122.338;2023-02-01T01:43:50;101920.63;;;13.02;30.10
70009;BME280;59542;37.950;-122.338;2023-02-01T01:46:19;101922.47;;;12.95;30.21
70009;BME280;59542;37.950;-122.338;2023-02-01T01:48:48;101929.19;;;12.84;30.60
70009;BME280;59542;37.950;-122.338;2023-02-01T01:51:19;101935.72;;;12.75;31.06
70009;BME280;59542;37.950;-122.338;2023-02-01T01:54:00;101929.16;;;12.56;31.66
70009;BME280;59542;37.950;-122.338;2023-02-01T01:56:28;101931.53;;;12.45;32.45
70009;BME280;59542;37.950;-122.338;2023-02-01T01:58:56;101935.56;;;12.34;32.80
70009;BME280;59542;37.950;-122.338;2023-02-01T02:01:23;101934.38;;;12.22;33.15
70009;BME280;59542;37.950;-122.338;2023-02-01T02:03:50;101941.75;;;11.98;34.21
70009;BME280;59542;37.950;-122.338;2023-02-01T02:06:30;101940.63;;;11.93;34.47
70009;BME280;59542;37.950;-122.338;2023-02-01T02:08:59;101937.88;;;11.42;36.39
70009;BME280;59542;37.950;-122.338;2023-02-01T02:11:25;101945.19;;;11.18;37.18
70009;BME280;59542;37.950;-122.338;2023-02-01T02:13:54;101946.06;;;10.96;37.40
70009;BME280;59542;37.950;-122.338;2023-02-01T02:22:46;101946.19;;;11.32;37.14
70009;BME280;59542;37.950;-122.338;2023-02-01T02:28:06;101948.97;;;10.17;39.28
70009;BME280;59542;37.950;-122.338;2023-02-01T02:33:46;101944.97;;;10.44;38.96
70009;BME280;59542;37.950;-122.338;2023-02-01T02:39:23;101955.03;;;10.03;40.44
70009;BME280;59542;37.950;-122.338;2023-02-01T02:42:17;101952.19;;;8.93;42.29
70009;BME280;59542;37.950;-122.338;2023-02-01T02:50:42;101962.88;;;8.10;45.56
70009;BME280;59542;37.950;-122.338;2023-02-01T02:56:34;101966.34;;;8.45;44.46
70009;BME280;59542;37.950;-122.338;2023-02-01T02:59:22;101974.88;;;8.65;43.90
70009;BME280;59542;37.950;-122.338;2023-02-01T03:02:09;101983.06;;;8.55;44.08
70009;BME280;59542;37.950;-122.338;2023-02-01T03:04:55;101976.72;;;8.06;45.54
70009;BME280;59542;37.950;-122.338;2023-02-01T03:16:58;101990.66;;;8.34;45.85
70009;BME280;59542;37.950;-122.338;2023-02-01T03:19:35;101979.28;;;8.32;45.20
70009;BME280;59542;37.950;-122.338;2023-02-01T03:22:07;101983.44;;;8.26;45.23
70009;BME280;59542;37.950;-122.338;2023-02-01T03:29:51;101990.84;;;7.30;47.82
70009;BME280;59542;37.950;-122.338;2023-02-01T03:32:21;101990.84;;;7.30;47.80
70009;BME280;59542;37.950;-122.338;2023-02-01T03:34:48;101994.56;;;7.71;46.62
70009;BME280;59542;37.950;-122.338;2023-02-01T03:37:21;101988.56;;;7.69;46.13
70009;BME280;59542;37.950;-122.338;2023-02-01T03:39:57;101992.69;;;7.37;46.83
70009;BME280;59542;37.950;-122.338;2023-02-01T03:42:33;102009.50;;;7.12;47.81
70009;BME280;59542;37.950;-122.338;2023-02-01T03:45:21;101999.69;;;7.12;47.94
70009;BME280;59542;37.950;-122.338;2023-02-01T03:47:52;102003.31;;;6.68;49.08
70009;BME280;59542;37.950;-122.338;2023-02-01T03:50:21;101996.47;;;6.83;48.91
70009;BME280;59542;37.950;-122.338;2023-02-01T03:53:12;102006.75;;;6.32;49.79
70009;BME280;59542;37.950;-122.338;2023-02-01T03:55:41;102000.69;;;6.22;50.35
70009;BME280;59542;37.950;-122.338;2023-02-01T03:58:19;102011.22;;;6.14;50.10
70009;BME280;59542;37.950;-122.338;2023-02-01T04:00:59;102010.84;;;5.99;50.30
70009;BME280;59542;37.950;-122.338;2023-02-01T04:03:26;102012.44;;;5.92;50.47
70009;BME280;59542;37.950;-122.338;2023-02-01T04:05:53;102012.78;;;6.07;50.19
70009;BME280;59542;37.950;-122.338;2023-02-01T04:08:22;102008.50;;;5.96;50.58
70009;BME280;59542;37.950;-122.338;2023-02-01T04:10:49;102012.63;;;6.08;50.48
70009;BME280;59542;37.950;-122.338;2023-02-01T04:13:16;102017.38;;;5.77;50.87
70009;BME280;59542;37.950;-122.338;2023-02-01T04:15:42;102010.94;;;5.70;51.15
70009;BME280;59542;37.950;-122.338;2023-02-01T04:18:08;102026.38;;;5.57;51.57
70009;BME280;59542;37.950;-122.338;2023-02-01T04:20:35;102016.69;;;5.66;51.32
70009;BME280;59542;37.950;-122.338;2023-02-01T04:23:01;102015.75;;;5.67;51.25
70009;BME280;59542;37.950;-122.338;2023-02-01T04:25:29;102014.31;;;5.72;50.88
70009;BME280;59542;37.950;-122.338;2023-02-01T04:27:55;102020.47;;;5.73;50.75
70009;BME280;59542;37.950;-122.338;2023-02-01T04:30:21;102026.13;;;5.97;50.12
70009;BME280;59542;37.950;-122.338;2023-02-01T04:32:49;102026.47;;;6.12;49.72
70009;BME280;59542;37.950;-122.338;2023-02-01T04:35:15;102024.22;;;6.17;49.67
70009;BME280;59542;37.950;-122.338;2023-02-01T04:37:43;102027.75;;;6.35;48.98
70009;BME280;59542;37.950;-122.338;2023-02-01T04:40:10;102027.16;;;6.42;48.85
70009;BME280;59542;37.950;-122.338;2023-02-01T04:42:36;102028.38;;;6.47;48.83
70009;BME280;59542;37.950;-122.338;2023-02-01T04:45:03;102028.91;;;6.33;48.86
70009;BME280;59542;37.950;-122.338;2023-02-01T04:47:29;102028.69;;;6.44;48.46
70009;BME280;59542;37.950;-122.338;2023-02-01T04:49:55;102023.00;;;6.57;48.22
70009;BME280;59542;37.950;-122.338;2023-02-01T04:52:21;102021.38;;;6.64;48.02
70009;BME280;59542;37.950;-122.338;2023-02-01T04:54:48;102021.00;;;6.41;47.82
70009;BME280;59542;37.950;-122.338;2023-02-01T04:57:14;102024.03;;;6.46;48.18
70009;BME280;59542;37.950;-122.338;2023-02-01T04:59:40;102025.34;;;6.96;46.56
70009;BME280;59542;37.950;-122.338;2023-02-01T05:02:06;102017.75;;;6.65;46.93
70009;BME280;59542;37.950;-122.338;2023-02-01T05:04:33;102030.97;;;6.57;47.16
70009;BME280;59542;37.950;-122.338;2023-02-01T05:06:59;102028.59;;;6.72;47.02
70009;BME280;59542;37.950;-122.338;2023-02-01T05:09:25;102025.41;;;6.50;47.12
70009;BME280;59542;37.950;-122.338;2023-02-01T05:11:51;102031.69;;;6.49;47.00
70009;BME280;59542;37.950;-122.338;2023-02-01T05:14:36;102026.09;;;6.52;46.92
70009;BME280;59542;37.950;-122.338;2023-02-01T05:17:02;102027.16;;;6.42;47.11
70009;BME280;59542;37.950;-122.338;2023-02-01T05:19:28;102036.91;;;6.51;46.97
70009;BME280;59542;37.950;-122.338;2023-02-01T05:21:54;102036.66;;;6.44;47.09
70009;BME280;59542;37.950;-122.338;2023-02-01T05:24:20;102031.78;;;6.40;47.14
70009;BME280;59542;37.950;-122.338;2023-02-01T05:26:48;102035.34;;;6.30;47.55
70009;BME280;59542;37.950;-122.338;2023-02-01T05:29:15;102034.34;;;6.31;47.21
70009;BME280;59542;37.950;-122.338;2023-02-01T05:31:42;102035.09;;;6.24;47.55
70009;BME280;59542;37.950;-122.338;2023-02-01T05:34:09;102037.22;;;5.83;47.73
70009;BME280;59542;37.950;-122.338;2023-02-01T05:36:35;102034.44;;;5.75;48.43
70009;BME280;59542;37.950;-122.338;2023-02-01T05:39:02;102047.63;;;5.67;48.56
70009;BME280;59542;37.950;-122.338;2023-02-01T05:41:28;102040.69;;;5.93;48.34
70009;BME280;59542;37.950;-122.338;2023-02-01T05:43:54;102047.38;;;5.97;47.96
70009;BME280;59542;37.950;-122.338;2023-02-01T05:46:21;102039.41;;;5.88;48.16
70009;BME280;59542;37.950;-122.338;2023-02-01T05:48:47;102045.44;;;5.90;47.98
70009;BME280;59542;37.950;-122.338;2023-02-01T05:51:13;102048.94;;;5.90;47.61
70009;BME280;59542;37.950;-122.338;2023-02-01T05:53:39;102054.25;;;6.00;47.40
70009;BME280;59542;37.950;-122.338;2023-02-01T05:56:06;102050.03;;;5.88;47.76
70009;BME280;59542;37.950;-122.338;2023-02-01T05:58:33;102049.09;;;5.79;47.69
70009;BME280;59542;37.950;-122.338;2023-02-01T06:01:00;102059.03;;;5.77;48.36
70009;BME280;59542;37.950;-122.338;2023-02-01T06:03:26;102055.00;;;5.73;48.38
70009;BME280;59542;37.950;-122.338;2023-02-01T06:05:53;102056.72;;;5.54;48.88
70009;BME280;59542;37.950;-122.338;2023-02-01T06:08:19;102056.72;;;5.54;48.53
70009;BME280;59542;37.950;-122.338;2023-02-01T06:10:45;102057.44;;;5.47;49.14
70009;BME280;59542;37.950;-122.338;2023-02-01T06:13:12;102058.31;;;4.89;50.36
70009;BME280;59542;37.950;-122.338;2023-02-01T06:15:38;102067.91;;;4.71;50.67
70009;BME280;59542;37.950;-122.338;2023-02-01T06:18:04;102065.13;;;4.13;52.54
70009;BME280;59542;37.950;-122.338;2023-02-01T06:20:31;102060.13;;;4.19;52.70
70009;BME280;59542;37.950;-122.338;2023-02-01T06:22:57;102063.47;;;4.12;53.78
70009;BME280;59542;37.950;-122.338;2023-02-01T06:25:23;102060.81;;;3.81;55.13
70009;BME280;59542;37.950;-122.338;2023-02-01T06:27:49;102063.19;;;4.15;54.23
70009;BME280;59542;37.950;-122.338;2023-02-01T06:30:16;102053.53;;;4.54;53.19
70009;BME280;59542;37.950;-122.338;2023-02-01T06:32:42;102055.63;;;4.50;53.01
70009;BME280;59542;37.950;-122.338;2023-02-01T06:35:10;102046.75;;;4.21;52.76
70009;BME280;59542;37.950;-122.338;2023-02-01T06:37:45;102050.31;;;4.50;51.96
70009;BME280;59542;37.950;-122.338;2023-02-01T06:40:12;102050.47;;;4.68;50.96
70009;BME280;59542;37.950;-122.338;2023-02-01T06:42:38;102052.16;;;4.69;51.21
70009;BME280;59542;37.950;-122.338;2023-02-01T06:45:04;102053.84;;;4.80;50.77
70009;BME280;59542;37.950;-122.338;2023-02-01T06:47:32;102049.09;;;4.84;50.33
70009;BME280;59542;37.950;-122.338;2023-02-01T06:49:58;102045.75;;;4.72;50.37
70009;BME280;59542;37.950;-122.338;2023-02-01T06:52:24;102048.53;;;4.80;50.58
70009;BME280;59542;37.950;-122.338;2023-02-01T06:54:51;102052.03;;;4.81;49.40
70009;BME280;59542;37.950;-122.338;2023-02-01T06:57:17;102044.84;;;4.42;50.58
70009;BME280;59542;37.950;-122.338;2023-02-01T06:59:43;102048.63;;;4.49;50.75
70009;BME280;59542;37.950;-122.338;2023-02-01T07:02:11;102052.13;;;4.60;50.35
70009;BME280;59542;37.950;-122.338;2023-02-01T07:04:37;102060.72;;;4.23;50.33
70009;BME280;59542;37.950;-122.338;2023-02-01T07:07:04;102054.25;;;4.16;50.82
70009;BME280;59542;37.950;-122.338;2023-02-01T07:09:30;102059.19;;;4.30;50.76
70009;BME280;59542;37.950;-122.338;2023-02-01T07:11:56;102071.25;;;4.54;50.11
70009;BME280;59542;37.950;-122.338;2023-02-01T07:14:22;102065.25;;;4.71;49.76
70009;BME280;59542;37.950;-122.338;2023-02-01T07:16:48;102073.41;;;4.79;49.67
70009;BME280;59542;37.950;-122.338;2023-02-01T07:19:15;102077.72;;;4.90;49.57
70009;BME280;59542;37.950;-122.338;2023-02-01T07:21:41;102077.00;;;4.88;49.58
70009;BME280;59542;37.950;-122.338;2023-02-01T07:24:07;102072.66;;;4.77;49.87
70009;BME280;59542;37.950;-122.338;2023-02-01T07:26:33;102072.16;;;4.83;49.41
70009;BME280;59542;37.950;-122.338;2023-02-01T07:29:00;102070.97;;;4.57;50.44
70009;BME280;59542;37.950;-122.338;2023-02-01T07:31:26;102067.94;;;4.61;50.43
70009;BME280;59542;37.950;-122.338;2023-02-01T07:33:54;102071.97;;;4.75;50.17
70009;BME280;59542;37.950;-122.338;2023-02-01T07:36:22;102065.84;;;4.84;50.21
70009;BME280;59542;37.950;-122.338;2023-02-01T07:38:48;102071.03;;;4.26;51.95
70009;BME280;59542;37.950;-122.338;2023-02-01T07:41:15;102068.66;;;4.23;52.34
70009;BME280;59542;37.950;-122.338;2023-02-01T07:43:41;102065.06;;;4.34;52.12
70009;BME280;59542;37.950;-122.338;2023-02-01T07:46:09;102061.63;;;4.53;51.21
70009;BME280;59542;37.950;-122.338;2023-02-01T07:48:35;102062.19;;;4.66;50.73
70009;BME280;59542;37.950;-122.338;2023-02-01T07:51:08;102063.03;;;4.66;50.70
70009;BME280;59542;37.950;-122.338;2023-02-01T07:53:36;102061.78;;;4.70;50.34
70009;BME280;59542;37.950;-122.338;2023-02-01T07:56:03;102059.97;;;4.81;50.03
70009;BME280;59542;37.950;-122.338;2023-02-01T07:58:30;102060.56;;;4.84;49.24
70009;BME280;59542;37.950;-122.338;2023-02-01T08:00:56;102061.66;;;4.62;49.73
70009;BME280;59542;37.950;-122.338;2023-02-01T08:03:41;102064.44;;;4.80;49.37
70009;BME280;59542;37.950;-122.338;2023-02-01T08:06:07;102071.44;;;4.81;49.36
70009;BME280;59542;37.950;-122.338;2023-02-01T08:08:34;102075.03;;;4.61;49.40
70009;BME280;59542;37.950;-122.338;2023-02-01T08:11:01;102074.22;;;4.70;49.06
70009;BME280;59542;37.950;-122.338;2023-02-01T08:13:28;102067.38;;;4.77;49.15
70009;BME280;59542;37.950;-122.338;2023-02-01T08:16:03;102072.25;;;4.82;49.23
70009;BME280;59542;37.950;-122.338;2023-02-01T08:18:30;102070.59;;;4.81;49.42
70009;BME280;59542;37.950;-122.338;2023-02-01T08:20:56;102067.53;;;4.85;49.32
70009;BME280;59542;37.950;-122.338;2023-02-01T08:23:23;102064.44;;;4.80;49.90
70009;BME280;59542;37.950;-122.338;2023-02-01T08:25:49;102068.09;;;4.79;49.80
70009;BME280;59542;37.950;-122.338;2023-02-01T08:28:15;102068.91;;;4.80;50.05
70009;BME280;59542;37.950;-122.338;2023-02-01T08:30:42;102068.34;;;4.76;50.48
70009;BME280;59542;37.950;-122.338;2023-02-01T08:33:08;102062.22;;;4.75;50.78
70009;BME280;59542;37.950;-122.338;2023-02-01T08:35:35;102061.78;;;4.70;50.79
70009;BME280;59542;37.950;-122.338;2023-02-01T08:38:02;102057.31;;;4.71;50.84
70009;BME280;59542;37.950;-122.338;2023-02-01T08:40:29;102049.09;;;4.74;51.14
70009;BME280;59542;37.950;-122.338;2023-02-01T08:42:56;102054.97;;;5.07;52.29
70009;BME280;59542;37.950;-122.338;2023-02-01T08:45:25;102056.91;;;4.75;53.24
70009;BME280;59542;37.950;-122.338;2023-02-01T08:47:52;102054.66;;;4.61;53.20
70009;BME280;59542;37.950;-122.338;2023-02-01T08:50:19;102054.66;;;4.61;53.21
70009;BME280;59542;37.950;-122.338;2023-02-01T08:52:46;102050.31;;;4.50;53.42
70009;BME280;59542;37.950;-122.338;2023-02-01T08:55:13;102043.19;;;4.61;53.55
70009;BME280;59542;37.950;-122.338;2023-02-01T08:57:40;102041.94;;;4.65;53.63
70009;BME280;59542;37.950;-122.338;2023-02-01T09:00:11;102033.56;;;4.50;53.40
70009;BME280;59542;37.950;-122.338;2023-02-01T09:02:38;102035.81;;;4.45;53.29
70009;BME280;59542;37.950;-122.338;2023-02-01T09:05:05;102045.97;;;4.49;53.42
70009;BME280;59542;37.950;-122.338;2023-02-01T09:07:32;102046.69;;;4.71;53.16
70009;BME280;59542;37.950;-122.338;2023-02-01T09:09:59;102042.53;;;4.68;53.36
70009;BME280;59542;37.950;-122.338;2023-02-01T09:12:30;102035.69;;;4.85;55.03
70009;BME280;59542;37.950;-122.338;2023-02-01T09:14:57;102038.75;;;4.71;55.88
70009;BME280;59542;37.950;-122.338;2023-02-01T09:17:26;102035.47;;;4.29;57.26
70009;BME280;59542;37.950;-122.338;2023-02-01T09:19:53;102033.38;;;4.32;57.75
70009;BME280;59542;37.950;-122.338;2023-02-01T09:22:20;102038.00;;;4.30;57.69
70009;BME280;59542;37.950;-122.338;2023-02-01T09:24:46;102036.97;;;4.12;58.58
70009;BME280;59542;37.950;-122.338;2023-02-01T09:27:12;102031.13;;;3.87;58.76
70009;BME280;59542;37.950;-122.338;2023-02-01T09:29:39;102036.53;;;3.76;59.51
70009;BME280;59542;37.950;-122.338;2023-02-01T09:32:05;102043.19;;;4.01;59.05
70009;BME280;59542;37.950;-122.338;2023-02-01T09:34:33;102038.09;;;4.19;58.75
70009;BME280;59542;37.950;-122.338;2023-02-01T09:36:59;102040.78;;;4.29;58.58
70009;BME280;59542;37.950;-122.338;2023-02-01T09:39:26;102039.66;;;4.31;58.28
70009;BME280;59542;37.950;-122.338;2023-02-01T09:47:15;102047.56;;;4.12;58.91
70009;BME280;59542;37.950;-122.338;2023-02-01T09:49:54;102044.19;;;4.00;59.38
70009;BME280;59542;37.950;-122.338;2023-02-01T09:52:27;102042.81;;;3.75;59.84
70009;BME280;59542;37.950;-122.338;2023-02-01T09:55:16;102053.03;;;3.59;60.42
70009;BME280;59542;37.950;-122.338;2023-02-01T09:58:01;102053.47;;;3.64;60.30
70009;BME280;59542;37.950;-122.338;2023-02-01T10:00:36;102046.34;;;3.85;59.75
70009;BME280;59542;37.950;-122.338;2023-02-01T10:03:04;102059.44;;;3.56;60.13
70009;BME280;59542;37.950;-122.338;2023-02-01T10:08:46;102058.53;;;3.46;60.64
70009;BME280;59542;37.950;-122.338;2023-02-01T10:11:32;102062.00;;;3.67;60.08
70009;BME280;59542;37.950;-122.338;2023-02-01T10:14:26;102056.41;;;3.40;60.78
70009;BME280;59542;37.950;-122.338;2023-02-01T10:20:09;102056.84;;;3.24;61.96
70009;BME280;59542;37.950;-122.338;2023-02-01T10:22:49;102054.00;;;3.16;62.05
70009;BME280;59542;37.950;-122.338;2023-02-01T10:25:28;102054.78;;;3.07;62.79
70009;BME280;59542;37.950;-122.338;2023-02-01T10:28:00;102049.31;;;2.87;62.87
70009;BME280;59542;37.950;-122.338;2023-02-01T10:30:41;102043.00;;;3.00;62.89
70009;BME280;59542;37.950;-122.338;2023-02-01T10:33:23;102039.69;;;2.86;62.86
70009;BME280;59542;37.950;-122.338;2023-02-01T10:35:55;102045.13;;;2.85;63.37
70009;BME280;59542;37.950;-122.338;2023-02-01T10:38:29;102042.63;;;3.04;63.06
70009;BME280;59542;37.950;-122.338;2023-02-01T10:41:16;102040.06;;;3.14;62.53
70009;BME280;59542;37.950;-122.338;2023-02-01T10:43:45;102041.50;;;3.18;62.43
70009;BME280;59542;37.950;-122.338;2023-02-01T10:46:14;102046.50;;;3.21;62.19
70009;BME280;59542;37.950;-122.338;2023-02-01T10:48:40;102044.28;;;3.16;62.20
70009;BME280;59542;37.950;-122.338;2023-02-01T10:51:16;102050.84;;;3.22;61.93
70009;BME280;59542;37.950;-122.338;2023-02-01T10:54:11;102051.34;;;3.16;61.90
70009;BME280;59542;37.950;-122.338;2023-02-01T10:56:40;102051.81;;;3.00;62.33
70009;BME280;59542;37.950;-122.338;2023-02-01T10:59:17;102049.28;;;3.20;61.69
70009;BME280;59542;37.950;-122.338;2023-02-01T11:01:45;102050.81;;;3.01;62.14
70009;BME280;59542;37.950;-122.338;2023-02-01T11:04:19;102048.34;;;2.88;62.57
70009;BME280;59542;37.950;-122.338;2023-02-01T11:06:51;102046.66;;;3.20;61.87
70009;BME280;59542;37.950;-122.338;2023-02-01T11:09:19;102054.38;;;3.32;61.44
70009;BME280;59542;37.950;-122.338;2023-02-01T11:16:53;102050.97;;;2.88;62.38
70009;BME280;59542;37.950;-122.338;2023-02-01T11:19:21;102051.81;;;2.57;64.02
70009;BME280;59542;37.950;-122.338;2023-02-01T11:21:52;102045.19;;;2.62;63.41
70009;BME280;59542;37.950;-122.338;2023-02-01T11:24:39;102046.16;;;2.61;63.65
70009;BME280;59542;37.950;-122.338;2023-02-01T11:27:14;102042.28;;;2.65;63.56
70009;BME280;59542;37.950;-122.338;2023-02-01T11:29:43;102040.88;;;2.94;62.34
70009;BME280;59542;37.950;-122.338;2023-02-01T11:32:13;102040.94;;;2.71;63.04
70009;BME280;59542;37.950;-122.338;2023-02-01T11:34:51;102037.69;;;2.79;62.80
70009;BME280;59542;37.950;-122.338;2023-02-01T11:39:58;102039.75;;;2.75;62.68
70009;BME280;59542;37.950;-122.338;2023-02-01T11:42:26;102040.00;;;2.72;62.88
70009;BME280;59542;37.950;-122.338;2023-02-01T11:45:23;102046.34;;;2.81;62.76
70009;BME280;59542;37.950;-122.338;2023-02-01T11:47:55;102049.84;;;3.02;62.07
70009;BME280;59542;37.950;-122.338;2023-02-01T11:50:35;102054.59;;;2.87;61.97
70009;BME280;59542;37.950;-122.338;2023-02-01T11:53:50;102045.28;;;2.72;62.32
70009;BME280;59542;37.950;-122.338;2023-02-01T11:56:51;102053.34;;;3.03;62.06
70009;BME280;59542;37.950;-122.338;2023-02-01T12:02:15;102054.88;;;2.84;62.49
70009;BME280;59542;37.950;-122.338;2023-02-01T12:24:22;102044.09;;;2.65;62.90
70009;BME280;59542;37.950;-122.338;2023-02-01T12:33:19;102058.00;;;2.78;62.32
70009;BME280;59542;37.950;-122.338;2023-02-01T12:41:48;102060.66;;;2.24;63.92
70009;BME280;59542;37.950;-122.338;2023-02-01T12:46:54;102061.63;;;2.23;63.72
70009;BME280;59542;37.950;-122.338;2023-02-01T12:49:44;102059.44;;;2.28;64.01
70009;BME280;59542;37.950;-122.338;2023-02-01T12:52:28;102050.91;;;2.35;63.37
70009;BME280;59542;37.950;-122.338;2023-02-01T12:58:18;102048.94;;;2.49;63.71
70009;BME280;59542;37.950;-122.338;2023-02-01T13:09:51;102056.09;;;2.69;62.41
70009;BME280;59542;37.950;-122.338;2023-02-01T13:12:37;102062.56;;;2.76;61.90
70009;BME280;59542;37.950;-122.338;2023-02-01T13:15:28;102069.59;;;2.55;62.58
70009;BME280;59542;37.950;-122.338;2023-02-01T13:17:59;102065.59;;;2.17;63.56
70009;BME280;59542;37.950;-122.338;2023-02-01T13:20:42;102065.81;;;2.25;63.92
70009;BME280;59542;37.950;-122.338;2023-02-01T13:23:25;102072.88;;;2.36;63.46
70009;BME280;59542;37.950;-122.338;2023-02-01T13:25:53;102076.72;;;2.32;64.26
70009;BME280;59542;37.950;-122.338;2023-02-01T13:28:24;102075.28;;;2.39;63.72
70009;BME280;59542;37.950;-122.338;2023-02-01T13:34:22;102066.63;;;2.26;64.52
70009;BME280;59542;37.950;-122.338;2023-02-01T13:45:19;102072.41;;;2.31;65.09
70009;BME280;59542;37.950;-122.338;2023-02-01T13:47:47;102069.63;;;2.44;64.20
70009;BME280;59542;37.950;-122.338;2023-02-01T13:50:23;102071.53;;;2.42;64.36
70009;BME280;59542;37.950;-122.338;2023-02-01T13:55:39;102083.81;;;2.20;64.51
70009;BME280;59542;37.950;-122.338;2023-02-01T13:58:13;102083.59;;;2.23;64.51
70009;BME280;59542;37.950;-122.338;2023-02-01T14:00:41;102088.38;;;2.18;65.06
70009;BME280;59542;37.950;-122.338;2023-02-01T14:03:15;102090.69;;;2.00;66.02
70009;BME280;59542;37.950;-122.338;2023-02-01T14:08:25;102081.78;;;2.24;64.73
70009;BME280;59542;37.950;-122.338;2023-02-01T14:11:02;102081.31;;;2.07;65.59
70009;BME280;59542;37.950;-122.338;2023-02-01T14:13:36;102074.81;;;2.23;64.99
70009;BME280;59542;37.950;-122.338;2023-02-01T14:21:23;102087.75;;;2.48;64.06
70009;BME280;59542;37.950;-122.338;2023-02-01T14:34:31;102098.53;;;2.68;63.51
70009;BME280;59542;37.950;-122.338;2023-02-01T14:37:03;102102.84;;;2.69;63.22
70009;BME280;59542;37.950;-122.338;2023-02-01T14:42:14;102102.38;;;2.63;63.57
70009;BME280;59542;37.950;-122.338;2023-02-01T14:44:44;102103.34;;;2.62;63.71
70009;BME280;59542;37.950;-122.338;2023-02-01T14:47:27;102104.31;;;2.73;63.86
70009;BME280;59542;37.950;-122.338;2023-02-01T14:52:47;102120.22;;;2.82;63.62
70009;BME280;59542;37.950;-122.338;2023-02-01T14:56:12;102114.25;;;2.80;63.67
70009;BME280;59542;37.950;-122.338;2023-02-01T15:01:15;102120.53;;;2.68;64.09
70009;BME280;59542;37.950;-122.338;2023-02-01T15:04:00;102119.53;;;2.80;63.55
70009;BME280;59542;37.950;-122.338;2023-02-01T15:12:13;102122.31;;;3.11;62.74
70009;BME280;59542;37.950;-122.338;2023-02-01T15:14:43;102127.16;;;3.06;63.16
70009;BME280;59542;37.950;-122.338;2023-02-01T15:17:25;102134.41;;;3.25;63.09
70009;BME280;59542;37.950;-122.338;2023-02-01T15:19:58;102139.34;;;3.29;62.66